createdAt,value
2018-11-13T00:00:22.287Z,12.10
2018-11-13T00:02:50.302Z,11.87
2018-11-13T00:05:17.682Z,11.83
2018-11-13T00:07:45.158Z,11.83
2018-11-13T00:10:12.840Z,12.23
2018-11-13T00:12:40.622Z,11.90
2018-11-13T00:15:08.020Z,11.95
2018-11-13T00:17:35.601Z,11.90
2018-11-13T00:20:02.993Z,12.07
2018-11-13T00:22:30.317Z,12.10
2018-11-13T00:24:57.601Z,12.40
2018-11-13T00:27:24.948Z,12.90
2018-11-13T00:29:53.033Z,12.20
2018-11-13T00:32:20.337Z,12.27
2018-11-13T00:34:47.643Z,12.67
2018-11-13T00:37:14.996Z,12.03
2018-11-13T00:39:42.324Z,12.47
2018-11-13T00:42:09.606Z,12.90
2018-11-13T00:44:36.932Z,11.97
2018-11-13T00:47:04.322Z,12.13
2018-11-13T00:49:31.664Z,11.33
2018-11-13T00:51:59.082Z,11.97
2018-11-13T00:54:26.537Z,11.27
2018-11-13T00:56:53.854Z,11.23
2018-11-13T00:59:21.788Z,11.90
2018-11-13T01:01:49.231Z,10.80
2018-11-13T01:04:16.540Z,10.93
2018-11-13T01:06:43.857Z,12.03
2018-11-13T01:09:11.174Z,11.07
2018-11-13T01:11:39.118Z,11.57
2018-11-13T01:14:06.874Z,11.37
2018-11-13T01:16:34.309Z,10.47
2018-11-13T01:19:01.711Z,11.03
2018-11-13T01:21:29.006Z,9.83
2018-11-13T01:23:56.578Z,10.80
2018-11-13T01:26:23.859Z,9.80
2018-11-13T01:28:51.168Z,10.23
2018-11-13T01:31:18.465Z,10.23
2018-11-13T01:33:45.806Z,10.37
2018-11-13T01:36:13.099Z,9.83
2018-11-13T01:38:40.405Z,9.97
2018-11-13T01:41:07.721Z,9.83
2018-11-13T01:43:35.050Z,9.77
2018-11-13T01:46:02.960Z,9.93
2018-11-13T01:48:30.300Z,9.77
2018-11-13T01:50:57.587Z,10.53
2018-11-13T01:53:24.926Z,9.33
2018-11-13T01:55:52.221Z,9.03
2018-11-13T01:58:19.581Z,9.10
2018-11-13T02:00:46.941Z,9.63
2018-11-13T02:03:14.593Z,9.43
2018-11-13T02:05:41.965Z,9.87
2018-11-13T02:08:09.436Z,9.57
2018-11-13T02:10:37.258Z,10.50
2018-11-13T02:13:05.671Z,9.97
2018-11-13T02:15:33.055Z,9.43
2018-11-13T02:18:00.375Z,9.60
2018-11-13T02:20:27.717Z,9.43
2018-11-13T02:22:55.104Z,8.80
2018-11-13T02:25:22.436Z,9.00
2018-11-13T02:27:50.179Z,9.70
2018-11-13T02:30:18.786Z,9.27
2018-11-13T02:32:46.707Z,9.30
2018-11-13T02:35:14.502Z,8.87
2018-11-13T02:37:42.194Z,8.60
2018-11-13T02:40:09.535Z,9.47
2018-11-13T02:42:37.611Z,9.83
2018-11-13T02:45:07.347Z,9.97
2018-11-13T02:47:34.688Z,10.20
2018-11-13T02:50:01.956Z,9.93
2018-11-13T02:52:29.213Z,9.93
2018-11-13T02:54:56.520Z,10.10
2018-11-13T02:57:23.792Z,9.23
2018-11-13T02:59:51.144Z,10.40
2018-11-13T03:02:18.431Z,9.50
2018-11-13T03:04:45.698Z,10.07
2018-11-13T03:07:13.040Z,9.80
2018-11-13T03:09:40.343Z,9.40
2018-11-13T03:12:07.659Z,9.27
2018-11-13T03:14:34.981Z,9.28
2018-11-13T03:17:02.303Z,9.57
2018-11-13T03:19:30.004Z,9.03
2018-11-13T03:21:57.276Z,9.97
2018-11-13T03:24:24.543Z,9.97
2018-11-13T03:26:51.882Z,9.13
2018-11-13T03:29:19.227Z,9.40
2018-11-13T03:31:46.555Z,9.07
2018-11-13T03:34:13.831Z,9.00
2018-11-13T03:36:41.154Z,9.13
2018-11-13T03:39:09.559Z,8.97
2018-11-13T03:41:37.321Z,9.40
2018-11-13T03:44:05.272Z,9.27
2018-11-13T03:46:32.541Z,8.87
2018-11-13T03:48:59.850Z,8.87
2018-11-13T03:51:27.113Z,8.90
2018-11-13T03:53:54.465Z,8.17
2018-11-13T03:56:21.835Z,9.37
2018-11-13T03:58:49.124Z,9.40
2018-11-13T04:01:16.415Z,8.60
2018-11-13T04:03:43.673Z,8.90
2018-11-13T04:06:11.010Z,8.93
2018-11-13T04:08:38.304Z,8.47
2018-11-13T04:11:05.630Z,8.40
2018-11-13T04:13:32.945Z,8.57
2018-11-13T04:16:00.239Z,8.57
2018-11-13T04:18:27.548Z,8.30
2018-11-13T04:20:54.811Z,8.50
2018-11-13T04:23:22.129Z,8.00
2018-11-13T04:25:49.473Z,8.03
2018-11-13T04:28:16.740Z,8.13
2018-11-13T04:30:44.561Z,8.23
2018-11-13T04:33:11.802Z,7.87
2018-11-13T04:35:39.092Z,7.87
2018-11-13T04:38:06.382Z,7.80
2018-11-13T04:40:33.632Z,8.00
2018-11-13T04:43:00.987Z,8.05
2018-11-13T04:45:28.300Z,7.87
2018-11-13T04:47:55.620Z,8.63
2018-11-13T04:50:23.404Z,7.70
2018-11-13T04:52:50.719Z,8.10
2018-11-13T04:55:18.423Z,7.87
2018-11-13T04:57:46.662Z,7.73
2018-11-13T05:00:15.618Z,8.40
2018-11-13T05:02:43.587Z,8.47
2018-11-13T05:05:12.089Z,7.60
2018-11-13T05:07:39.607Z,8.60
2018-11-13T05:10:09.820Z,8.20
2018-11-13T05:12:38.100Z,8.57
2018-11-13T05:15:06.450Z,8.20
2018-11-13T05:17:34.986Z,8.27
2018-11-13T05:20:03.104Z,8.17
2018-11-13T05:22:31.306Z,8.73
2018-11-13T05:24:59.645Z,8.47
2018-11-13T05:27:28.022Z,7.97
2018-11-13T05:29:56.727Z,7.50
2018-11-13T05:32:24.815Z,8.50
2018-11-13T05:34:52.832Z,8.53
2018-11-13T05:37:20.480Z,7.80
2018-11-13T05:39:48.146Z,8.23
2018-11-13T05:42:15.733Z,8.17
2018-11-13T05:44:43.489Z,8.20
2018-11-13T05:47:11.092Z,8.83
2018-11-13T05:49:38.659Z,8.60
2018-11-13T05:52:06.179Z,8.67
2018-11-13T05:54:33.992Z,9.23
2018-11-13T05:57:01.465Z,8.65
2018-11-13T05:59:29.236Z,8.37
2018-11-13T06:01:57.356Z,8.60
2018-11-13T06:04:24.886Z,8.97
2018-11-13T06:06:52.268Z,8.68
2018-11-13T06:09:19.622Z,8.53
2018-11-13T06:11:48.046Z,8.43
2018-11-13T06:14:15.505Z,8.30
2018-11-13T06:16:42.654Z,8.53
2018-11-13T06:19:09.970Z,8.80
2018-11-13T06:21:37.369Z,8.83
2018-11-13T06:24:04.954Z,8.70
2018-11-13T06:26:32.353Z,9.13
2018-11-13T06:28:59.949Z,8.85
2018-11-13T06:31:27.503Z,8.73
2018-11-13T06:33:55.136Z,8.37
2018-11-13T06:36:22.537Z,9.30
2018-11-13T06:38:49.971Z,8.87
2018-11-13T06:41:17.332Z,8.67
2018-11-13T06:43:44.937Z,8.93
2018-11-13T06:46:12.441Z,9.97
2018-11-13T06:48:40.144Z,8.68
2018-11-13T06:51:10.699Z,8.80
2018-11-13T06:53:51.187Z,8.30
2018-11-13T06:56:21.707Z,8.50
2018-11-13T06:59:57.535Z,8.60
2018-11-13T07:02:28.511Z,8.07
2018-11-13T07:04:59.022Z,9.00
2018-11-13T07:07:31.815Z,8.83
2018-11-13T07:10:01.393Z,8.48
2018-11-13T07:12:32.068Z,8.53
2018-11-13T07:15:01.655Z,8.50
2018-11-13T07:17:29.064Z,8.03
2018-11-13T07:19:56.299Z,8.70
2018-11-13T07:22:23.626Z,8.10
2018-11-13T07:24:50.855Z,7.93
2018-11-13T07:27:18.186Z,8.58
2018-11-13T07:29:45.391Z,8.20
2018-11-13T07:32:12.625Z,8.40
2018-11-13T07:34:39.857Z,8.30
2018-11-13T07:37:07.099Z,8.85
2018-11-13T07:39:34.383Z,8.35
2018-11-13T07:42:01.671Z,8.60
2018-11-13T07:44:28.919Z,8.25
2018-11-13T07:46:56.182Z,7.92
2018-11-13T07:49:23.386Z,7.78
2018-11-13T07:51:50.658Z,8.25
2018-11-13T07:54:17.891Z,8.20
2018-11-13T07:56:45.112Z,8.37
2018-11-13T07:59:12.363Z,7.42
2018-11-13T08:01:39.632Z,8.77
2018-11-13T08:04:06.908Z,8.50
2018-11-13T08:06:34.206Z,9.73
2018-11-13T08:09:01.402Z,9.53
2018-11-13T08:11:28.687Z,8.75
2018-11-13T08:13:55.957Z,8.90
2018-11-13T08:16:23.184Z,8.10
2018-11-13T08:18:50.446Z,8.58
2018-11-13T08:21:17.676Z,9.40
2018-11-13T08:23:44.906Z,9.20
2018-11-13T08:26:12.197Z,8.33
2018-11-13T08:28:39.482Z,9.03
2018-11-13T08:31:06.815Z,8.60
2018-11-13T08:33:34.067Z,9.18
2018-11-13T08:36:01.956Z,8.95
2018-11-13T08:38:29.213Z,8.40
2018-11-13T08:40:56.471Z,8.70
2018-11-13T08:43:23.712Z,8.45
2018-11-13T08:45:50.974Z,8.03
2018-11-13T08:48:18.237Z,8.28
2018-11-13T08:50:45.511Z,8.35
2018-11-13T08:53:12.710Z,8.65
2018-11-13T08:55:39.963Z,8.98
2018-11-13T08:58:07.507Z,8.20
2018-11-13T09:00:34.779Z,8.75
2018-11-13T09:03:02.006Z,8.95
2018-11-13T09:05:29.278Z,8.83
2018-11-13T09:07:56.499Z,9.53
2018-11-13T09:10:23.741Z,9.63
2018-11-13T09:12:51.287Z,9.43
2018-11-13T09:15:19.726Z,9.35
2018-11-13T09:17:46.976Z,9.00
2018-11-13T09:20:15.636Z,8.98
2018-11-13T09:22:43.017Z,9.63
2018-11-13T09:25:12.548Z,8.20
2018-11-13T09:27:39.847Z,9.08
2018-11-13T09:30:09.696Z,8.85
2018-11-13T09:32:36.986Z,39.20
2018-11-13T09:35:04.989Z,16.37
2018-11-13T09:37:32.283Z,10.65
2018-11-13T09:39:59.470Z,12.07
2018-11-13T09:42:26.716Z,11.25
2018-11-13T09:44:54.068Z,10.43
2018-11-13T09:47:21.240Z,9.65
2018-11-13T09:49:48.558Z,9.10
2018-11-13T09:52:15.821Z,8.83
2018-11-13T09:54:43.044Z,8.55
2018-11-13T09:57:10.307Z,7.92
2018-11-13T09:59:37.539Z,8.33
2018-11-13T10:02:05.259Z,8.93
2018-11-13T10:04:32.702Z,8.15
2018-11-13T10:06:59.481Z,8.93
2018-11-13T10:09:26.720Z,7.50
2018-11-13T10:11:53.971Z,7.83
2018-11-13T10:14:21.175Z,7.35
2018-11-13T10:16:48.448Z,7.75
2018-11-13T10:19:15.765Z,8.28
2018-11-13T10:21:43.072Z,7.45
2018-11-13T10:24:10.264Z,8.30
2018-11-13T10:26:37.492Z,8.10
2018-11-13T10:29:04.883Z,8.25
2018-11-13T10:31:32.172Z,8.70
2018-11-13T10:33:59.559Z,8.50
2018-11-13T10:36:26.948Z,8.40
2018-11-13T10:38:54.295Z,7.97
2018-11-13T10:41:21.856Z,7.85
2018-11-13T10:43:49.044Z,7.40
2018-11-13T10:46:16.340Z,7.12
2018-11-13T10:48:43.610Z,6.45
2018-11-13T10:51:10.891Z,6.00
2018-11-13T10:53:38.384Z,5.70
2018-11-13T10:56:05.995Z,5.37
2018-11-13T10:58:33.316Z,5.17
2018-11-13T11:03:08.132Z,5.10
2018-11-13T11:05:35.323Z,5.05
2018-11-13T11:08:02.594Z,4.72
2018-11-13T11:10:29.843Z,4.20
2018-11-13T11:12:57.150Z,4.70
2018-11-13T11:15:24.423Z,4.97
2018-11-13T11:17:51.989Z,4.30
2018-11-13T11:20:19.216Z,3.83
2018-11-13T11:22:46.582Z,4.10
2018-11-13T11:25:13.928Z,4.30
2018-11-13T11:27:41.120Z,3.60
2018-11-13T11:30:11.194Z,3.42
2018-11-13T11:32:38.488Z,3.60
2018-11-13T11:35:06.648Z,2.92
2018-11-13T11:37:33.899Z,3.00
2018-11-13T11:40:01.143Z,3.20
2018-11-13T11:42:28.448Z,2.90
2018-11-13T11:44:55.679Z,2.77
2018-11-13T11:47:22.940Z,2.45
2018-11-13T11:49:50.203Z,2.40
2018-11-13T11:52:17.443Z,2.50
2018-11-13T11:54:44.690Z,2.62
2018-11-13T11:57:11.947Z,2.45
2018-11-13T11:59:39.252Z,2.50
2018-11-13T12:02:06.568Z,2.25
2018-11-13T12:04:33.939Z,2.00
2018-11-13T12:07:01.216Z,2.20
2018-11-13T12:09:28.582Z,2.08
2018-11-13T12:11:55.889Z,2.10
2018-11-13T12:14:23.192Z,2.17
2018-11-13T12:16:50.569Z,1.60
2018-11-13T12:19:18.491Z,2.00
2018-11-13T12:21:45.850Z,1.70
2018-11-13T12:24:13.179Z,1.87
2018-11-13T12:26:42.061Z,2.42
2018-11-13T12:29:09.028Z,1.90
2018-11-13T12:31:36.284Z,2.15
2018-11-13T12:34:03.580Z,1.92
2018-11-13T12:36:30.847Z,1.60
2018-11-13T12:38:58.138Z,1.75
2018-11-13T12:41:25.394Z,1.90
2018-11-13T12:43:52.754Z,1.50
2018-11-13T12:46:20.018Z,1.20
2018-11-13T12:48:47.351Z,1.10
2018-11-13T12:51:20.392Z,2.17
2018-11-13T12:53:47.743Z,1.25
2018-11-13T12:56:15.714Z,1.17
2018-11-13T12:58:42.978Z,1.17
2018-11-13T13:12:32.224Z,2.47
2018-11-13T13:14:59.577Z,2.55
2018-11-13T13:17:26.743Z,2.45
2018-11-13T13:19:54.084Z,1.67
2018-11-13T13:22:24.329Z,2.00
2018-11-13T13:24:51.531Z,4.25
2018-11-13T13:27:18.916Z,2.20
2018-11-13T13:29:46.312Z,6.40
2018-11-13T13:32:13.651Z,1.70
2018-11-13T13:34:41.024Z,1.30
2018-11-13T13:37:08.335Z,1.10
2018-11-13T13:39:35.608Z,1.50
2018-11-13T13:42:03.012Z,1.60
2018-11-13T13:44:30.284Z,1.30
2018-11-13T13:46:57.665Z,1.20
2018-11-13T13:49:24.976Z,1.40
2018-11-13T13:51:52.297Z,1.12
2018-11-13T13:54:19.710Z,1.10
2018-11-13T13:56:47.083Z,1.00
2018-11-13T13:59:14.357Z,1.20
2018-11-13T14:01:41.715Z,1.90
2018-11-13T14:04:09.017Z,1.50
2018-11-13T14:06:36.308Z,1.25
2018-11-13T14:09:05.613Z,1.30
2018-11-13T14:11:32.955Z,1.32
2018-11-13T14:14:00.259Z,1.30
2018-11-13T14:16:27.530Z,1.57
2018-11-13T14:18:54.843Z,2.00
2018-11-13T14:21:22.178Z,1.90
2018-11-13T14:23:49.525Z,2.08
2018-11-13T14:26:16.914Z,1.80
2018-11-13T14:28:44.240Z,1.72
2018-11-13T14:31:11.517Z,2.60
2018-11-13T14:33:38.785Z,1.60
2018-11-13T14:36:06.360Z,1.50
2018-11-13T14:38:33.616Z,1.50
2018-11-13T14:41:00.875Z,1.55
2018-11-13T14:43:28.265Z,1.60
2018-11-13T14:45:55.552Z,1.10
2018-11-13T14:48:22.804Z,1.10
2018-11-13T14:50:50.128Z,1.30
2018-11-13T14:53:17.493Z,1.10
2018-11-13T14:55:45.314Z,1.30
2018-11-13T14:58:13.599Z,1.25
2018-11-13T15:00:41.311Z,1.57
2018-11-13T15:03:11.114Z,2.50
2018-11-13T15:05:38.456Z,2.10
2018-11-13T15:08:06.594Z,2.77
2018-11-13T15:10:42.864Z,2.60
2018-11-13T15:13:10.520Z,4.22
2018-11-13T15:15:38.137Z,3.00
2018-11-13T15:18:05.823Z,3.12
2018-11-13T15:20:33.099Z,5.28
2018-11-13T15:23:00.388Z,1.82
2018-11-13T15:25:27.732Z,1.70
2018-11-13T15:27:55.135Z,2.98
2018-11-13T15:30:24.841Z,2.50
2018-11-13T15:32:54.624Z,1.77
2018-11-13T15:35:21.903Z,1.85
2018-11-13T15:37:49.166Z,2.10
2018-11-13T15:40:18.448Z,2.95
2018-11-13T15:42:45.902Z,2.70
2018-11-13T15:45:14.364Z,2.50
2018-11-13T15:47:42.367Z,2.50
2018-11-13T15:50:13.314Z,2.90
2018-11-13T15:52:40.593Z,2.92
2018-11-13T15:55:09.031Z,30.00
2018-11-13T15:57:37.080Z,29.80
2018-11-13T16:00:09.169Z,24.43
2018-11-13T16:02:36.582Z,18.23
2018-11-13T16:05:07.968Z,24.32
2018-11-13T16:07:35.315Z,15.38
2018-11-13T16:10:02.670Z,52.10
2018-11-13T16:12:30.110Z,56.53
2018-11-13T16:14:57.321Z,54.60
2018-11-13T16:17:24.947Z,18.90
2018-11-13T16:19:52.208Z,7.72
2018-11-13T16:22:19.492Z,7.40
2018-11-13T16:24:47.161Z,7.37
2018-11-13T16:27:14.408Z,9.58
2018-11-13T16:29:47.320Z,74.03
2018-11-13T16:32:14.523Z,28.83
2018-11-13T16:34:41.779Z,9.40
2018-11-13T16:37:09.517Z,22.37
2018-11-13T16:39:36.775Z,5.45
2018-11-13T16:42:04.331Z,3.70
2018-11-13T16:44:31.495Z,4.08
2018-11-13T16:46:58.804Z,4.10
2018-11-13T16:49:26.131Z,7.70
2018-11-13T16:51:53.392Z,6.47
2018-11-13T16:54:20.733Z,4.77
2018-11-13T16:56:52.648Z,4.20
2018-11-13T16:59:20.129Z,7.72
2018-11-13T17:01:47.411Z,14.90
2018-11-13T17:04:14.712Z,10.30
2018-11-13T17:06:42.102Z,32.23
2018-11-13T17:09:10.278Z,25.60
2018-11-13T17:11:37.614Z,23.10
2018-11-13T17:14:04.987Z,20.03
2018-11-13T17:16:32.204Z,17.37
2018-11-13T17:18:59.461Z,12.83
2018-11-13T17:21:26.808Z,11.03
2018-11-13T17:23:54.123Z,10.07
2018-11-13T17:26:21.445Z,11.27
2018-11-13T17:28:48.700Z,12.07
2018-11-13T17:31:16.033Z,9.80
2018-11-13T17:33:43.280Z,8.03
2018-11-13T17:36:10.602Z,9.60
2018-11-13T17:38:37.916Z,10.93
2018-11-13T17:41:05.245Z,19.00
2018-11-13T17:43:32.518Z,16.47
2018-11-13T17:45:59.796Z,20.73
2018-11-13T17:48:27.160Z,16.85
2018-11-13T17:50:54.445Z,12.53
2018-11-13T17:53:21.817Z,44.87
2018-11-13T17:55:49.365Z,10.50
2018-11-13T17:58:16.759Z,19.00
2018-11-13T18:00:45.685Z,13.47
2018-11-13T18:03:13.861Z,26.17
2018-11-13T18:05:41.697Z,20.50
2018-11-13T18:08:09.689Z,11.43
2018-11-13T18:10:38.025Z,13.67
2018-11-13T18:13:05.844Z,8.80
2018-11-13T18:15:33.183Z,6.27
2018-11-13T18:18:01.328Z,5.57
2018-11-13T18:20:29.847Z,4.10
2018-11-13T18:22:57.136Z,4.47
2018-11-13T18:25:24.468Z,7.80
2018-11-13T18:27:53.121Z,17.73
2018-11-13T18:30:22.520Z,13.63
2018-11-13T18:32:50.181Z,7.07
2018-11-13T18:35:19.687Z,11.17
2018-11-13T18:37:47.721Z,10.23
2018-11-13T18:40:16.137Z,6.97
2018-11-13T18:42:44.701Z,6.07
2018-11-13T18:45:15.440Z,5.80
2018-11-13T18:47:42.708Z,5.83
2018-11-13T18:50:13.185Z,5.70
2018-11-13T18:52:40.459Z,4.87
2018-11-13T18:55:08.603Z,5.30
2018-11-13T18:57:35.863Z,5.23
2018-11-13T19:00:05.008Z,5.37
2018-11-13T19:02:32.436Z,4.50
2018-11-13T19:04:59.698Z,4.30
2018-11-13T19:07:27.528Z,4.90
2018-11-13T19:09:54.887Z,4.20
2018-11-13T19:12:22.174Z,4.70
2018-11-13T19:14:49.399Z,4.80
2018-11-13T19:17:16.758Z,4.20
2018-11-13T19:19:44.103Z,4.17
2018-11-13T19:22:11.367Z,4.53
2018-11-13T19:24:38.606Z,4.17
2018-11-13T19:27:05.862Z,5.40
2018-11-13T19:29:33.162Z,4.47
2018-11-13T19:32:00.554Z,4.20
2018-11-13T19:34:27.807Z,7.20
2018-11-13T19:36:55.181Z,4.43
2018-11-13T19:39:22.374Z,30.63
2018-11-13T19:41:49.675Z,10.17
2018-11-13T19:44:16.957Z,10.40
2018-11-13T19:46:44.288Z,12.27
2018-11-13T19:49:11.654Z,10.07
2018-11-13T19:51:38.973Z,8.63
2018-11-13T19:54:06.263Z,7.03
2018-11-13T19:56:35.519Z,15.20
2018-11-13T19:59:02.816Z,6.13
2018-11-13T20:01:30.133Z,13.70
2018-11-13T20:03:57.467Z,5.17
2018-11-13T20:06:24.854Z,3.70
2018-11-13T20:08:52.221Z,4.47
2018-11-13T20:11:19.537Z,3.93
2018-11-13T20:13:47.212Z,3.70
2018-11-13T20:16:14.540Z,4.17
2018-11-13T20:18:41.894Z,7.67
2018-11-13T20:21:09.217Z,4.77
2018-11-13T20:23:36.506Z,5.30
2018-11-13T20:26:03.851Z,6.20
2018-11-13T20:28:31.159Z,6.60
2018-11-13T20:30:58.718Z,6.10
2018-11-13T20:33:25.963Z,6.10
2018-11-13T20:35:53.285Z,5.87
2018-11-13T20:38:20.586Z,5.50
2018-11-13T20:40:47.904Z,10.73
2018-11-13T20:43:15.248Z,7.40
2018-11-13T20:45:42.631Z,6.27
2018-11-13T20:48:10.016Z,6.73
2018-11-13T20:50:37.453Z,6.80
2018-11-13T20:53:05.063Z,6.83
2018-11-13T20:55:32.355Z,6.90
2018-11-13T20:57:59.714Z,7.13
2018-11-13T21:00:29.319Z,7.13
2018-11-13T21:02:56.962Z,6.90
2018-11-13T21:05:24.423Z,7.10
2018-11-13T21:07:51.900Z,7.33
2018-11-13T21:10:20.880Z,6.80
2018-11-13T21:12:48.714Z,6.60
2018-11-13T21:15:17.463Z,6.83
2018-11-13T21:17:45.139Z,6.93
2018-11-13T21:20:14.912Z,7.63
2018-11-13T21:22:42.248Z,6.83
2018-11-13T21:25:11.092Z,6.67
2018-11-13T21:27:38.403Z,7.40
2018-11-13T21:30:10.778Z,7.27
2018-11-13T21:32:38.008Z,7.57
2018-11-13T21:35:06.094Z,7.40
2018-11-13T21:37:33.643Z,8.80
2018-11-13T21:40:00.920Z,8.70
2018-11-13T21:42:28.251Z,8.13
2018-11-13T21:44:55.585Z,7.50
2018-11-13T21:47:22.903Z,8.43
2018-11-13T21:49:50.599Z,7.90
2018-11-13T21:52:18.305Z,8.50
2018-11-13T21:54:45.877Z,8.03
2018-11-13T21:57:12.989Z,8.17
2018-11-13T21:59:40.288Z,7.00
2018-11-13T22:02:07.640Z,7.57
2018-11-13T22:04:40.377Z,8.57
2018-11-13T22:07:07.648Z,8.60
2018-11-13T22:09:35.125Z,9.53
2018-11-13T22:12:02.816Z,8.83
2018-11-13T22:14:32.681Z,9.07
2018-11-13T22:17:01.523Z,8.73
2018-11-13T22:19:28.857Z,8.07
2018-11-13T22:21:56.229Z,10.27
2018-11-13T22:24:23.507Z,9.33
2018-11-13T22:26:50.883Z,10.57
2018-11-13T22:29:18.287Z,12.97
2018-11-13T22:31:45.552Z,15.07
2018-11-13T22:34:12.935Z,17.13
2018-11-13T22:36:40.244Z,10.63
2018-11-13T22:39:07.888Z,13.60
2018-11-13T22:41:35.131Z,8.93
2018-11-13T22:44:02.518Z,9.60
2018-11-13T22:46:29.817Z,8.60
2018-11-13T22:48:57.080Z,7.47
2018-11-13T22:51:24.436Z,8.53
2018-11-13T22:53:51.824Z,7.20
2018-11-13T22:56:19.938Z,7.60
2018-11-13T22:58:47.200Z,9.20
2018-11-13T23:01:14.577Z,8.43
2018-11-13T23:03:41.791Z,8.70
2018-11-13T23:06:09.072Z,8.63
2018-11-13T23:08:36.369Z,8.43
2018-11-13T23:11:18.510Z,8.10
2018-11-13T23:13:45.794Z,10.63
2018-11-13T23:16:13.090Z,9.37
2018-11-13T23:18:40.350Z,9.97
2018-11-13T23:21:07.624Z,9.20
2018-11-13T23:23:34.895Z,9.27
2018-11-13T23:26:02.129Z,8.43
2018-11-13T23:28:29.649Z,9.43
2018-11-13T23:30:56.945Z,10.10
2018-11-13T23:33:24.214Z,8.90
2018-11-13T23:35:51.507Z,8.80
2018-11-13T23:38:18.736Z,8.90
2018-11-13T23:40:46.076Z,8.57
2018-11-13T23:43:13.373Z,8.27
2018-11-13T23:45:40.674Z,8.40
2018-11-13T23:48:07.944Z,8.20
2018-11-13T23:50:35.208Z,8.03
2018-11-13T23:53:02.489Z,8.47
2018-11-13T23:55:29.784Z,7.70
2018-11-13T23:57:57.060Z,7.80
